sensor_id;sensor_type;location;lat;lon;timestamp;temperature;humidity
14188;DHT22;7175;51.978;5.330;2023-04-15T00:01:16;9.00;99.90
14188;DHT22;7175;51.978;5.330;2023-04-15T00:03:46;9.00;99.90
14188;DHT22;7175;51.978;5.330;2023-04-15T00:06:14;9.00;99.90
14188;DHT22;7175;51.978;5.330;2023-04-15T00:08:43;9.00;99.90
14188;DHT22;7175;51.978;5.330;2023-04-15T00:11:12;9.00;99.90
14188;DHT22;7175;51.978;5.330;2023-04-15T00:13:42;9.00;99.90
14188;DHT22;7175;51.978;5.330;2023-04-15T00:16:10;9.00;99.90
14188;DHT22;7175;51.978;5.330;2023-04-15T00:18:39;8.90;99.90
14188;DHT22;7175;51.978;5.330;2023-04-15T00:21:07;8.90;99.90
14188;DHT22;7175;51.978;5.330;2023-04-15T00:23:36;8.90;99.90
14188;DHT22;7175;51.978;5.330;2023-04-15T00:26:04;8.90;99.90
14188;DHT22;7175;51.978;5.330;2023-04-15T00:28:33;8.80;99.90
14188;DHT22;7175;51.978;5.330;2023-04-15T00:31:03;8.80;99.90
14188;DHT22;7175;51.978;5.330;2023-04-15T00:33:32;8.90;99.90
14188;DHT22;7175;51.978;5.330;2023-04-15T00:36:03;8.90;99.90
14188;DHT22;7175;51.978;5.330;2023-04-15T00:38:32;8.80;99.90
14188;DHT22;7175;51.978;5.330;2023-04-15T00:41:00;8.80;99.90
14188;DHT22;7175;51.978;5.330;2023-04-15T00:43:30;8.80;99.90
14188;DHT22;7175;51.978;5.330;2023-04-15T00:46:00;8.80;99.90
14188;DHT22;7175;51.978;5.330;2023-04-15T00:48:31;8.70;99.90
14188;DHT22;7175;51.978;5.330;2023-04-15T00:51:00;8.70;99.90
14188;DHT22;7175;51.978;5.330;2023-04-15T00:53:28;8.60;99.90
14188;DHT22;7175;51.978;5.330;2023-04-15T00:55:57;8.50;99.90
14188;DHT22;7175;51.978;5.330;2023-04-15T00:58:26;8.50;99.90
14188;DHT22;7175;51.978;5.330;2023-04-15T01:00:55;8.50;99.90
14188;DHT22;7175;51.978;5.330;2023-04-15T01:03:24;8.40;99.90
14188;DHT22;7175;51.978;5.330;2023-04-15T01:05:54;8.40;99.90
14188;DHT22;7175;51.978;5.330;2023-04-15T01:08:26;8.20;99.90
14188;DHT22;7175;51.978;5.330;2023-04-15T01:10:55;8.20;99.90
14188;DHT22;7175;51.978;5.330;2023-04-15T01:13:24;8.10;99.90
14188;DHT22;7175;51.978;5.330;2023-04-15T01:15:53;8.00;99.90
14188;DHT22;7175;51.978;5.330;2023-04-15T01:18:23;8.00;99.90
14188;DHT22;7175;51.978;5.330;2023-04-15T01:20:53;7.90;99.90
14188;DHT22;7175;51.978;5.330;2023-04-15T01:23:22;7.90;99.90
14188;DHT22;7175;51.978;5.330;2023-04-15T01:25:52;7.80;99.90
14188;DHT22;7175;51.978;5.330;2023-04-15T01:28:21;7.80;99.90
14188;DHT22;7175;51.978;5.330;2023-04-15T01:30:50;7.80;99.90
14188;DHT22;7175;51.978;5.330;2023-04-15T01:33:18;7.70;99.90
14188;DHT22;7175;51.978;5.330;2023-04-15T01:35:47;7.70;99.90
14188;DHT22;7175;51.978;5.330;2023-04-15T01:38:16;7.70;99.90
14188;DHT22;7175;51.978;5.330;2023-04-15T01:40:44;7.60;99.90
14188;DHT22;7175;51.978;5.330;2023-04-15T01:43:14;7.60;99.90
14188;DHT22;7175;51.978;5.330;2023-04-15T01:45:43;7.50;99.90
14188;DHT22;7175;51.978;5.330;2023-04-15T01:48:11;7.50;99.90
14188;DHT22;7175;51.978;5.330;2023-04-15T01:50:40;7.50;99.90
14188;DHT22;7175;51.978;5.330;2023-04-15T01:53:08;7.40;99.90
14188;DHT22;7175;51.978;5.330;2023-04-15T01:55:37;7.40;99.90
14188;DHT22;7175;51.978;5.330;2023-04-15T01:58:05;7.40;99.90
14188;DHT22;7175;51.978;5.330;2023-04-15T02:00:35;7.40;99.90
14188;DHT22;7175;51.978;5.330;2023-04-15T02:03:04;7.40;99.90
14188;DHT22;7175;51.978;5.330;2023-04-15T02:05:33;7.40;99.90
14188;DHT22;7175;51.978;5.330;2023-04-15T02:08:01;7.40;99.90
14188;DHT22;7175;51.978;5.330;2023-04-15T02:10:30;7.40;99.90
14188;DHT22;7175;51.978;5.330;2023-04-15T02:12:58;7.30;99.90
14188;DHT22;7175;51.978;5.330;2023-04-15T02:15:27;7.30;99.90
14188;DHT22;7175;51.978;5.330;2023-04-15T02:17:57;7.30;99.90
14188;DHT22;7175;51.978;5.330;2023-04-15T02:20:27;7.30;99.90
14188;DHT22;7175;51.978;5.330;2023-04-15T02:22:56;7.20;99.90
14188;DHT22;7175;51.978;5.330;2023-04-15T02:25:25;7.20;99.90
14188;DHT22;7175;51.978;5.330;2023-04-15T02:27:56;7.10;99.90
14188;DHT22;7175;51.978;5.330;2023-04-15T02:30:25;7.10;99.90
14188;DHT22;7175;51.978;5.330;2023-04-15T02:32:54;7.10;99.90
14188;DHT22;7175;51.978;5.330;2023-04-15T02:35:24;7.10;99.90
14188;DHT22;7175;51.978;5.330;2023-04-15T02:37:53;7.10;99.90
14188;DHT22;7175;51.978;5.330;2023-04-15T02:40:21;7.00;99.90
14188;DHT22;7175;51.978;5.330;2023-04-15T02:42:50;7.00;99.90
14188;DHT22;7175;51.978;5.330;2023-04-15T02:45:19;7.00;99.90
14188;DHT22;7175;51.978;5.330;2023-04-15T02:47:50;6.90;99.90
14188;DHT22;7175;51.978;5.330;2023-04-15T02:50:19;6.80;99.90
14188;DHT22;7175;51.978;5.330;2023-04-15T02:52:50;6.80;99.90
14188;DHT22;7175;51.978;5.330;2023-04-15T02:55:19;6.80;99.90
14188;DHT22;7175;51.978;5.330;2023-04-15T02:57:48;6.80;99.90
14188;DHT22;7175;51.978;5.330;2023-04-15T03:00:17;6.70;99.90
14188;DHT22;7175;51.978;5.330;2023-04-15T03:02:45;6.70;99.90
14188;DHT22;7175;51.978;5.330;2023-04-15T03:05:16;6.70;99.90
14188;DHT22;7175;51.978;5.330;2023-04-15T03:07:44;6.60;99.90
14188;DHT22;7175;51.978;5.330;2023-04-15T03:10:14;6.60;99.90
14188;DHT22;7175;51.978;5.330;2023-04-15T03:12:42;6.60;99.90
14188;DHT22;7175;51.978;5.330;2023-04-15T03:15:11;6.60;99.90
14188;DHT22;7175;51.978;5.330;2023-04-15T03:17:40;6.60;99.90
14188;DHT22;7175;51.978;5.330;2023-04-15T03:20:09;6.60;99.90
14188;DHT22;7175;51.978;5.330;2023-04-15T03:22:37;6.50;99.90
14188;DHT22;7175;51.978;5.330;2023-04-15T03:25:06;6.50;99.90
14188;DHT22;7175;51.978;5.330;2023-04-15T03:27:37;6.60;99.90
14188;DHT22;7175;51.978;5.330;2023-04-15T03:30:07;6.50;99.90
14188;DHT22;7175;51.978;5.330;2023-04-15T03:32:35;6.50;99.90
14188;DHT22;7175;51.978;5.330;2023-04-15T03:35:05;6.60;99.90
14188;DHT22;7175;51.978;5.330;2023-04-15T03:37:34;6.50;99.90
14188;DHT22;7175;51.978;5.330;2023-04-15T03:40:03;6.50;99.90
14188;DHT22;7175;51.978;5.330;2023-04-15T03:42:31;6.50;99.90
14188;DHT22;7175;51.978;5.330;2023-04-15T03:45:01;6.50;99.90
14188;DHT22;7175;51.978;5.330;2023-04-15T03:47:30;6.50;99.90
14188;DHT22;7175;51.978;5.330;2023-04-15T03:49:58;6.50;99.90
14188;DHT22;7175;51.978;5.330;2023-04-15T03:52:27;6.50;99.90
14188;DHT22;7175;51.978;5.330;2023-04-15T03:54:55;6.50;99.90
14188;DHT22;7175;51.978;5.330;2023-04-15T03:57:24;6.50;99.90
14188;DHT22;7175;51.978;5.330;2023-04-15T03:59:52;6.50;99.90
14188;DHT22;7175;51.978;5.330;2023-04-15T04:02:22;6.40;99.90
14188;DHT22;7175;51.978;5.330;2023-04-15T04:04:51;6.40;99.90
14188;DHT22;7175;51.978;5.330;2023-04-15T04:07:20;6.50;99.90
14188;DHT22;7175;51.978;5.330;2023-04-15T04:09:50;6.40;99.90
14188;DHT22;7175;51.978;5.330;2023-04-15T04:12:19;6.40;99.90
14188;DHT22;7175;51.978;5.330;2023-04-15T04:14:47;6.40;99.90
14188;DHT22;7175;51.978;5.330;2023-04-15T04:17:16;6.40;99.90
14188;DHT22;7175;51.978;5.330;2023-04-15T04:19:46;6.30;99.90
14188;DHT22;7175;51.978;5.330;2023-04-15T04:22:14;6.30;99.90
14188;DHT22;7175;51.978;5.330;2023-04-15T04:24:43;6.30;99.90
14188;DHT22;7175;51.978;5.330;2023-04-15T04:27:12;6.30;99.90
14188;DHT22;7175;51.978;5.330;2023-04-15T04:29:40;6.30;99.90
14188;DHT22;7175;51.978;5.330;2023-04-15T04:32:09;6.30;99.90
14188;DHT22;7175;51.978;5.330;2023-04-15T04:34:39;6.30;99.90
14188;DHT22;7175;51.978;5.330;2023-04-15T04:37:09;6.30;99.90
14188;DHT22;7175;51.978;5.330;2023-04-15T04:39:37;6.30;99.90
14188;DHT22;7175;51.978;5.330;2023-04-15T04:42:06;6.30;99.90
14188;DHT22;7175;51.978;5.330;2023-04-15T04:44:35;6.30;99.90
14188;DHT22;7175;51.978;5.330;2023-04-15T04:47:03;6.30;99.90
14188;DHT22;7175;51.978;5.330;2023-04-15T04:49:33;6.30;99.90
14188;DHT22;7175;51.978;5.330;2023-04-15T04:52:02;6.30;99.90
14188;DHT22;7175;51.978;5.330;2023-04-15T04:54:32;6.30;99.90
14188;DHT22;7175;51.978;5.330;2023-04-15T04:57:01;6.20;99.90
14188;DHT22;7175;51.978;5.330;2023-04-15T04:59:29;6.20;99.90
14188;DHT22;7175;51.978;5.330;2023-04-15T05:01:58;6.30;99.90
14188;DHT22;7175;51.978;5.330;2023-04-15T05:04:27;6.30;99.90
14188;DHT22;7175;51.978;5.330;2023-04-15T05:06:57;6.30;99.90
14188;DHT22;7175;51.978;5.330;2023-04-15T05:09:26;6.20;99.90
14188;DHT22;7175;51.978;5.330;2023-04-15T05:11:57;6.20;99.90
14188;DHT22;7175;51.978;5.330;2023-04-15T05:14:26;6.20;99.90
14188;DHT22;7175;51.978;5.330;2023-04-15T05:16:54;6.20;99.90
14188;DHT22;7175;51.978;5.330;2023-04-15T05:19:23;6.30;99.90
14188;DHT22;7175;51.978;5.330;2023-04-15T05:21:52;6.30;99.90
14188;DHT22;7175;51.978;5.330;2023-04-15T05:24:20;6.30;99.90
14188;DHT22;7175;51.978;5.330;2023-04-15T05:26:49;6.40;99.90
14188;DHT22;7175;51.978;5.330;2023-04-15T05:29:19;6.40;99.90
14188;DHT22;7175;51.978;5.330;2023-04-15T05:31:47;6.40;99.90
14188;DHT22;7175;51.978;5.330;2023-04-15T05:34:16;6.50;99.90
14188;DHT22;7175;51.978;5.330;2023-04-15T05:36:44;6.50;99.90
14188;DHT22;7175;51.978;5.330;2023-04-15T05:39:13;6.50;99.90
14188;DHT22;7175;51.978;5.330;2023-04-15T05:41:42;6.50;99.90
14188;DHT22;7175;51.978;5.330;2023-04-15T05:44:10;6.50;99.90
14188;DHT22;7175;51.978;5.330;2023-04-15T05:46:40;6.50;99.90
14188;DHT22;7175;51.978;5.330;2023-04-15T05:49:09;6.50;99.90
14188;DHT22;7175;51.978;5.330;2023-04-15T05:51:39;6.40;99.90
14188;DHT22;7175;51.978;5.330;2023-04-15T05:54:09;6.40;99.90
14188;DHT22;7175;51.978;5.330;2023-04-15T05:56:37;6.40;99.90
14188;DHT22;7175;51.978;5.330;2023-04-15T05:59:06;6.40;99.90
14188;DHT22;7175;51.978;5.330;2023-04-15T06:01:34;6.40;99.90
14188;DHT22;7175;51.978;5.330;2023-04-15T06:04:04;6.40;99.90
14188;DHT22;7175;51.978;5.330;2023-04-15T06:06:33;6.40;99.90
14188;DHT22;7175;51.978;5.330;2023-04-15T06:09:02;6.40;99.90
14188;DHT22;7175;51.978;5.330;2023-04-15T06:11:31;6.40;99.90
14188;DHT22;7175;51.978;5.330;2023-04-15T06:13:59;6.50;99.90
14188;DHT22;7175;51.978;5.330;2023-04-15T06:16:28;6.50;99.90
14188;DHT22;7175;51.978;5.330;2023-04-15T06:18:57;6.50;99.90
14188;DHT22;7175;51.978;5.330;2023-04-15T06:21:27;6.60;99.90
14188;DHT22;7175;51.978;5.330;2023-04-15T06:23:55;6.70;99.90
14188;DHT22;7175;51.978;5.330;2023-04-15T06:26:24;7.00;99.90
14188;DHT22;7175;51.978;5.330;2023-04-15T06:28:53;7.10;99.90
14188;DHT22;7175;51.978;5.330;2023-04-15T06:31:22;7.30;99.90
14188;DHT22;7175;51.978;5.330;2023-04-15T06:33:50;7.40;99.90
14188;DHT22;7175;51.978;5.330;2023-04-15T06:36:19;7.50;99.90
14188;DHT22;7175;51.978;5.330;2023-04-15T06:38:49;7.70;99.90
14188;DHT22;7175;51.978;5.330;2023-04-15T06:41:18;7.90;99.90
14188;DHT22;7175;51.978;5.330;2023-04-15T06:43:46;7.80;99.90
14188;DHT22;7175;51.978;5.330;2023-04-15T06:46:15;7.90;99.90
14188;DHT22;7175;51.978;5.330;2023-04-15T06:48:44;8.00;99.90
14188;DHT22;7175;51.978;5.330;2023-04-15T06:51:12;8.20;99.90
14188;DHT22;7175;51.978;5.330;2023-04-15T06:53:41;8.30;99.90
14188;DHT22;7175;51.978;5.330;2023-04-15T06:56:11;8.40;99.90
14188;DHT22;7175;51.978;5.330;2023-04-15T06:58:39;8.60;99.90
14188;DHT22;7175;51.978;5.330;2023-04-15T07:01:08;8.50;99.90
14188;DHT22;7175;51.978;5.330;2023-04-15T07:03:37;8.50;99.90
14188;DHT22;7175;51.978;5.330;2023-04-15T07:06:05;8.60;99.90
14188;DHT22;7175;51.978;5.330;2023-04-15T07:08:35;8.60;99.90
14188;DHT22;7175;51.978;5.330;2023-04-15T07:11:04;8.60;99.90
14188;DHT22;7175;51.978;5.330;2023-04-15T07:13:34;8.70;99.90
14188;DHT22;7175;51.978;5.330;2023-04-15T07:16:04;8.80;99.90
14188;DHT22;7175;51.978;5.330;2023-04-15T07:18:32;9.00;99.90
14188;DHT22;7175;51.978;5.330;2023-04-15T07:21:01;9.20;99.90
14188;DHT22;7175;51.978;5.330;2023-04-15T07:23:30;9.40;99.90
14188;DHT22;7175;51.978;5.330;2023-04-15T07:25:58;9.60;99.90
14188;DHT22;7175;51.978;5.330;2023-04-15T07:28:27;10.00;99.90
14188;DHT22;7175;51.978;5.330;2023-04-15T07:30:58;10.10;99.90
14188;DHT22;7175;51.978;5.330;2023-04-15T07:33:27;10.20;99.90
14188;DHT22;7175;51.978;5.330;2023-04-15T07:35:55;10.40;99.90
14188;DHT22;7175;51.978;5.330;2023-04-15T07:38:24;10.40;99.90
14188;DHT22;7175;51.978;5.330;2023-04-15T07:40:53;10.50;99.90
14188;DHT22;7175;51.978;5.330;2023-04-15T07:43:21;10.80;99.90
14188;DHT22;7175;51.978;5.330;2023-04-15T07:45:49;11.00;99.90
14188;DHT22;7175;51.978;5.330;2023-04-15T07:48:20;11.00;99.90
14188;DHT22;7175;51.978;5.330;2023-04-15T07:50:49;11.40;99.90
14188;DHT22;7175;51.978;5.330;2023-04-15T07:53:18;11.40;99.90
14188;DHT22;7175;51.978;5.330;2023-04-15T07:55:47;11.40;99.90
14188;DHT22;7175;51.978;5.330;2023-04-15T07:58:16;11.40;99.90
14188;DHT22;7175;51.978;5.330;2023-04-15T08:00:44;11.60;99.90
14188;DHT22;7175;51.978;5.330;2023-04-15T08:03:13;11.90;99.90
14188;DHT22;7175;51.978;5.330;2023-04-15T08:05:44;11.90;99.90
14188;DHT22;7175;51.978;5.330;2023-04-15T08:08:13;11.80;99.90
14188;DHT22;7175;51.978;5.330;2023-04-15T08:10:42;11.70;99.90
14188;DHT22;7175;51.978;5.330;2023-04-15T08:13:10;12.00;99.90
14188;DHT22;7175;51.978;5.330;2023-04-15T08:15:39;12.20;99.90
14188;DHT22;7175;51.978;5.330;2023-04-15T08:18:07;12.20;99.90
14188;DHT22;7175;51.978;5.330;2023-04-15T08:20:37;12.40;99.90
14188;DHT22;7175;51.978;5.330;2023-04-15T08:23:07;12.50;99.90
14188;DHT22;7175;51.978;5.330;2023-04-15T08:25:36;12.60;99.90
14188;DHT22;7175;51.978;5.330;2023-04-15T08:28:04;12.40;99.90
14188;DHT22;7175;51.978;5.330;2023-04-15T08:30:34;12.30;99.90
14188;DHT22;7175;51.978;5.330;2023-04-15T08:33:03;12.60;99.90
14188;DHT22;7175;51.978;5.330;2023-04-15T08:35:31;13.00;99.90
14188;DHT22;7175;51.978;5.330;2023-04-15T08:38:00;13.00;99.90
14188;DHT22;7175;51.978;5.330;2023-04-15T08:40:41;12.80;99.90
14188;DHT22;7175;51.978;5.330;2023-04-15T08:43:14;12.60;99.90
14188;DHT22;7175;51.978;5.330;2023-04-15T08:45:46;12.60;99.90
14188;DHT22;7175;51.978;5.330;2023-04-15T08:48:18;12.80;99.90
14188;DHT22;7175;51.978;5.330;2023-04-15T08:50:47;12.80;99.90
14188;DHT22;7175;51.978;5.330;2023-04-15T08:53:16;13.00;99.90
14188;DHT22;7175;51.978;5.330;2023-04-15T08:55:51;13.10;99.90
14188;DHT22;7175;51.978;5.330;2023-04-15T08:58:20;13.20;99.90
14188;DHT22;7175;51.978;5.330;2023-04-15T09:00:48;12.90;99.90
14188;DHT22;7175;51.978;5.330;2023-04-15T09:03:17;13.20;99.90
14188;DHT22;7175;51.978;5.330;2023-04-15T09:05:49;13.30;99.90
14188;DHT22;7175;51.978;5.330;2023-04-15T09:08:19;13.30;99.90
14188;DHT22;7175;51.978;5.330;2023-04-15T09:10:49;13.20;99.90
14188;DHT22;7175;51.978;5.330;2023-04-15T09:13:18;13.40;99.90
14188;DHT22;7175;51.978;5.330;2023-04-15T09:15:47;13.20;99.90
14188;DHT22;7175;51.978;5.330;2023-04-15T09:18:26;13.20;99.90
14188;DHT22;7175;51.978;5.330;2023-04-15T09:21:00;13.00;99.90
14188;DHT22;7175;51.978;5.330;2023-04-15T09:23:32;13.30;99.90
14188;DHT22;7175;51.978;5.330;2023-04-15T09:26:03;13.10;99.90
14188;DHT22;7175;51.978;5.330;2023-04-15T09:28:32;13.30;99.90
14188;DHT22;7175;51.978;5.330;2023-04-15T09:31:02;13.30;99.90
14188;DHT22;7175;51.978;5.330;2023-04-15T09:33:30;13.20;99.90
14188;DHT22;7175;51.978;5.330;2023-04-15T09:36:00;13.50;99.90
14188;DHT22;7175;51.978;5.330;2023-04-15T09:38:31;13.70;99.90
14188;DHT22;7175;51.978;5.330;2023-04-15T09:40:59;14.00;99.90
14188;DHT22;7175;51.978;5.330;2023-04-15T09:43:39;14.20;99.90
14188;DHT22;7175;51.978;5.330;2023-04-15T09:46:08;14.30;99.90
14188;DHT22;7175;51.978;5.330;2023-04-15T09:48:37;14.20;99.90
14188;DHT22;7175;51.978;5.330;2023-04-15T09:51:06;14.40;99.90
14188;DHT22;7175;51.978;5.330;2023-04-15T09:53:35;14.20;99.90
14188;DHT22;7175;51.978;5.330;2023-04-15T09:56:05;14.40;99.90
14188;DHT22;7175;51.978;5.330;2023-04-15T09:58:35;14.80;99.90
14188;DHT22;7175;51.978;5.330;2023-04-15T10:01:06;14.80;99.90
14188;DHT22;7175;51.978;5.330;2023-04-15T10:03:35;14.70;99.90
14188;DHT22;7175;51.978;5.330;2023-04-15T10:06:04;15.00;99.90
14188;DHT22;7175;51.978;5.330;2023-04-15T10:08:33;14.90;99.90
14188;DHT22;7175;51.978;5.330;2023-04-15T10:11:02;14.80;99.90
14188;DHT22;7175;51.978;5.330;2023-04-15T10:13:31;14.70;99.90
14188;DHT22;7175;51.978;5.330;2023-04-15T10:16:07;14.80;99.90
14188;DHT22;7175;51.978;5.330;2023-04-15T10:18:41;15.00;99.90
14188;DHT22;7175;51.978;5.330;2023-04-15T10:21:11;15.50;99.90
14188;DHT22;7175;51.978;5.330;2023-04-15T10:23:43;15.40;99.90
14188;DHT22;7175;51.978;5.330;2023-04-15T10:26:12;15.60;99.90
14188;DHT22;7175;51.978;5.330;2023-04-15T10:28:41;15.60;99.90
14188;DHT22;7175;51.978;5.330;2023-04-15T10:31:12;15.10;99.90
14188;DHT22;7175;51.978;5.330;2023-04-15T10:33:41;15.20;99.90
14188;DHT22;7175;51.978;5.330;2023-04-15T10:36:11;14.80;99.90
14188;DHT22;7175;51.978;5.330;2023-04-15T10:38:42;15.20;99.90
14188;DHT22;7175;51.978;5.330;2023-04-15T10:41:16;15.10;99.90
14188;DHT22;7175;51.978;5.330;2023-04-15T10:43:49;15.60;99.90
14188;DHT22;7175;51.978;5.330;2023-04-15T10:46:21;15.50;99.90
14188;DHT22;7175;51.978;5.330;2023-04-15T10:48:52;15.40;99.90
14188;DHT22;7175;51.978;5.330;2023-04-15T10:51:29;15.90;99.90
14188;DHT22;7175;51.978;5.330;2023-04-15T10:53:58;15.60;99.90
14188;DHT22;7175;51.978;5.330;2023-04-15T10:56:28;15.30;99.90
14188;DHT22;7175;51.978;5.330;2023-04-15T10:58:58;15.40;99.90
14188;DHT22;7175;51.978;5.330;2023-04-15T11:01:52;15.90;99.90
14188;DHT22;7175;51.978;5.330;2023-04-15T11:04:52;16.00;99.90
14188;DHT22;7175;51.978;5.330;2023-04-15T11:07:34;16.60;99.90
14188;DHT22;7175;51.978;5.330;2023-04-15T11:10:05;16.50;99.90
14188;DHT22;7175;51.978;5.330;2023-04-15T11:12:53;16.10;99.90
14188;DHT22;7175;51.978;5.330;2023-04-15T11:15:27;16.10;99.90
14188;DHT22;7175;51.978;5.330;2023-04-15T11:17:58;16.10;99.90
14188;DHT22;7175;51.978;5.330;2023-04-15T11:20:37;16.10;99.90
14188;DHT22;7175;51.978;5.330;2023-04-15T11:23:06;16.40;99.90
14188;DHT22;7175;51.978;5.330;2023-04-15T11:25:42;16.60;99.90
14188;DHT22;7175;51.978;5.330;2023-04-15T11:28:11;16.20;99.90
14188;DHT22;7175;51.978;5.330;2023-04-15T11:30:41;16.20;99.90
14188;DHT22;7175;51.978;5.330;2023-04-15T11:33:13;16.60;99.90
14188;DHT22;7175;51.978;5.330;2023-04-15T11:35:47;17.00;99.90
14188;DHT22;7175;51.978;5.330;2023-04-15T11:38:16;16.70;99.90
14188;DHT22;7175;51.978;5.330;2023-04-15T11:40:45;16.90;99.90
14188;DHT22;7175;51.978;5.330;2023-04-15T11:43:16;16.90;99.90
14188;DHT22;7175;51.978;5.330;2023-04-15T11:45:51;16.30;99.90
14188;DHT22;7175;51.978;5.330;2023-04-15T11:48:24;16.10;99.90
14188;DHT22;7175;51.978;5.330;2023-04-15T11:50:54;15.90;99.90
14188;DHT22;7175;51.978;5.330;2023-04-15T11:53:25;15.90;99.90
14188;DHT22;7175;51.978;5.330;2023-04-15T11:56:03;16.60;99.90
14188;DHT22;7175;51.978;5.330;2023-04-15T11:58:34;16.40;99.90
14188;DHT22;7175;51.978;5.330;2023-04-15T12:01:05;16.50;99.90
14188;DHT22;7175;51.978;5.330;2023-04-15T12:03:42;16.50;99.90
14188;DHT22;7175;51.978;5.330;2023-04-15T12:06:14;16.30;99.90
14188;DHT22;7175;51.978;5.330;2023-04-15T12:11:41;16.20;99.90
14188;DHT22;7175;51.978;5.330;2023-04-15T12:14:24;16.80;99.90
14188;DHT22;7175;51.978;5.330;2023-04-15T12:16:57;17.10;99.90
14188;DHT22;7175;51.978;5.330;2023-04-15T12:19:29;17.60;99.90
14188;DHT22;7175;51.978;5.330;2023-04-15T12:22:00;17.10;99.90
14188;DHT22;7175;51.978;5.330;2023-04-15T12:24:31;17.10;99.90
14188;DHT22;7175;51.978;5.330;2023-04-15T12:27:02;17.50;99.90
14188;DHT22;7175;51.978;5.330;2023-04-15T12:29:31;17.00;99.90
14188;DHT22;7175;51.978;5.330;2023-04-15T12:32:05;16.90;99.90
14188;DHT22;7175;51.978;5.330;2023-04-15T12:34:38;16.90;99.90
14188;DHT22;7175;51.978;5.330;2023-04-15T12:37:09;17.40;99.90
14188;DHT22;7175;51.978;5.330;2023-04-15T12:39:41;17.40;99.90
14188;DHT22;7175;51.978;5.330;2023-04-15T12:42:10;17.90;99.90
14188;DHT22;7175;51.978;5.330;2023-04-15T12:44:39;17.60;99.90
14188;DHT22;7175;51.978;5.330;2023-04-15T12:47:08;16.50;99.90
14188;DHT22;7175;51.978;5.330;2023-04-15T12:49:39;16.70;99.90
14188;DHT22;7175;51.978;5.330;2023-04-15T12:52:08;16.80;99.90
14188;DHT22;7175;51.978;5.330;2023-04-15T12:54:37;17.30;99.90
14188;DHT22;7175;51.978;5.330;2023-04-15T12:57:06;17.30;99.90
14188;DHT22;7175;51.978;5.330;2023-04-15T12:59:35;17.90;99.90
14188;DHT22;7175;51.978;5.330;2023-04-15T13:02:04;18.30;99.90
14188;DHT22;7175;51.978;5.330;2023-04-15T13:04:32;17.00;99.90
14188;DHT22;7175;51.978;5.330;2023-04-15T13:07:02;17.00;99.90
14188;DHT22;7175;51.978;5.330;2023-04-15T13:09:31;16.90;99.90
14188;DHT22;7175;51.978;5.330;2023-04-15T13:12:00;17.40;99.90
14188;DHT22;7175;51.978;5.330;2023-04-15T13:14:28;17.40;99.90
14188;DHT22;7175;51.978;5.330;2023-04-15T13:16:58;17.10;99.90
14188;DHT22;7175;51.978;5.330;2023-04-15T13:19:26;16.80;99.90
14188;DHT22;7175;51.978;5.330;2023-04-15T13:21:55;16.90;99.90
14188;DHT22;7175;51.978;5.330;2023-04-15T13:24:25;16.70;99.90
14188;DHT22;7175;51.978;5.330;2023-04-15T13:26:54;16.80;99.90
14188;DHT22;7175;51.978;5.330;2023-04-15T13:29:25;16.40;99.90
14188;DHT22;7175;51.978;5.330;2023-04-15T13:31:54;16.00;99.90
14188;DHT22;7175;51.978;5.330;2023-04-15T13:34:23;16.60;99.90
14188;DHT22;7175;51.978;5.330;2023-04-15T13:36:51;17.00;99.90
14188;DHT22;7175;51.978;5.330;2023-04-15T13:39:20;17.70;99.90
14188;DHT22;7175;51.978;5.330;2023-04-15T13:41:49;17.50;99.90
14188;DHT22;7175;51.978;5.330;2023-04-15T13:44:18;17.10;99.90
14188;DHT22;7175;51.978;5.330;2023-04-15T13:46:48;17.50;99.90
14188;DHT22;7175;51.978;5.330;2023-04-15T13:49:16;16.30;99.90
14188;DHT22;7175;51.978;5.330;2023-04-15T13:51:45;16.20;99.90
14188;DHT22;7175;51.978;5.330;2023-04-15T13:54:14;15.60;99.90
14188;DHT22;7175;51.978;5.330;2023-04-15T13:56:42;15.40;99.90
14188;DHT22;7175;51.978;5.330;2023-04-15T13:59:12;16.00;99.90
14188;DHT22;7175;51.978;5.330;2023-04-15T14:01:41;16.90;99.90
14188;DHT22;7175;51.978;5.330;2023-04-15T14:04:12;16.60;99.90
14188;DHT22;7175;51.978;5.330;2023-04-15T14:06:40;16.40;99.90
14188;DHT22;7175;51.978;5.330;2023-04-15T14:09:09;15.90;99.90
14188;DHT22;7175;51.978;5.330;2023-04-15T14:11:38;16.00;99.90
14188;DHT22;7175;51.978;5.330;2023-04-15T14:14:06;16.50;99.90
14188;DHT22;7175;51.978;5.330;2023-04-15T14:16:36;16.90;99.90
14188;DHT22;7175;51.978;5.330;2023-04-15T14:19:05;16.10;99.90
14188;DHT22;7175;51.978;5.330;2023-04-15T14:21:34;15.60;99.90
14188;DHT22;7175;51.978;5.330;2023-04-15T14:24:03;15.20;99.90
14188;DHT22;7175;51.978;5.330;2023-04-15T14:26:32;14.90;99.90
14188;DHT22;7175;51.978;5.330;2023-04-15T14:29:00;15.00;99.90
14188;DHT22;7175;51.978;5.330;2023-04-15T14:31:29;14.70;99.90
14188;DHT22;7175;51.978;5.330;2023-04-15T14:33:59;14.80;99.90
14188;DHT22;7175;51.978;5.330;2023-04-15T14:36:29;15.00;99.90
14188;DHT22;7175;51.978;5.330;2023-04-15T14:38:58;15.10;99.90
14188;DHT22;7175;51.978;5.330;2023-04-15T14:41:26;15.00;99.90
14188;DHT22;7175;51.978;5.330;2023-04-15T14:43:55;14.50;99.90
14188;DHT22;7175;51.978;5.330;2023-04-15T14:46:24;14.20;99.90
14188;DHT22;7175;51.978;5.330;2023-04-15T14:48:53;14.00;99.90
14188;DHT22;7175;51.978;5.330;2023-04-15T14:51:23;13.90;99.90
14188;DHT22;7175;51.978;5.330;2023-04-15T14:53:53;14.00;99.90
14188;DHT22;7175;51.978;5.330;2023-04-15T14:56:21;13.80;99.90
14188;DHT22;7175;51.978;5.330;2023-04-15T14:58:50;13.70;99.90
14188;DHT22;7175;51.978;5.330;2023-04-15T15:01:19;13.80;99.90
14188;DHT22;7175;51.978;5.330;2023-04-15T15:03:49;13.90;99.90
14188;DHT22;7175;51.978;5.330;2023-04-15T15:06:19;13.90;99.90
14188;DHT22;7175;51.978;5.330;2023-04-15T15:08:50;13.90;99.90
14188;DHT22;7175;51.978;5.330;2023-04-15T15:11:18;13.90;99.90
14188;DHT22;7175;51.978;5.330;2023-04-15T15:13:46;13.70;99.90
14188;DHT22;7175;51.978;5.330;2023-04-15T15:16:15;13.60;99.90
14188;DHT22;7175;51.978;5.330;2023-04-15T15:18:43;13.60;99.90
14188;DHT22;7175;51.978;5.330;2023-04-15T15:21:12;13.30;99.90
14188;DHT22;7175;51.978;5.330;2023-04-15T15:23:40;13.20;99.90
14188;DHT22;7175;51.978;5.330;2023-04-15T15:26:10;13.10;99.90
14188;DHT22;7175;51.978;5.330;2023-04-15T15:28:39;13.00;99.90
14188;DHT22;7175;51.978;5.330;2023-04-15T15:31:08;13.00;99.90
14188;DHT22;7175;51.978;5.330;2023-04-15T15:33:36;12.90;99.90
14188;DHT22;7175;51.978;5.330;2023-04-15T15:36:05;12.80;99.90
14188;DHT22;7175;51.978;5.330;2023-04-15T15:38:34;12.70;99.90
14188;DHT22;7175;51.978;5.330;2023-04-15T15:41:02;12.80;99.90
14188;DHT22;7175;51.978;5.330;2023-04-15T15:43:32;12.60;99.90
14188;DHT22;7175;51.978;5.330;2023-04-15T15:46:01;12.50;99.90
14188;DHT22;7175;51.978;5.330;2023-04-15T15:48:30;12.60;99.90
14188;DHT22;7175;51.978;5.330;2023-04-15T15:50:59;12.40;99.90
14188;DHT22;7175;51.978;5.330;2023-04-15T15:53:28;12.30;99.90
14188;DHT22;7175;51.978;5.330;2023-04-15T15:55:56;12.40;99.90
14188;DHT22;7175;51.978;5.330;2023-04-15T15:58:25;12.40;99.90
14188;DHT22;7175;51.978;5.330;2023-04-15T16:00:55;12.40;99.90
14188;DHT22;7175;51.978;5.330;2023-04-15T16:03:27;12.40;99.90
14188;DHT22;7175;51.978;5.330;2023-04-15T16:05:56;12.10;99.90
14188;DHT22;7175;51.978;5.330;2023-04-15T16:08:24;12.00;99.90
14188;DHT22;7175;51.978;5.330;2023-04-15T16:10:53;11.80;99.90